sensor_id;sensor_type;location;lat;lon;timestamp;P1;durP1;ratioP1;P2;durP2;ratioP2
78854;SDS011;68206;59.956;30.234;2023-05-29T00:01:22;8.85;;;2.50;;
78854;SDS011;68206;59.956;30.234;2023-05-29T00:03:52;5.57;;;2.30;;
78854;SDS011;68206;59.956;30.234;2023-05-29T00:06:20;6.20;;;1.60;;
78854;SDS011;68206;59.956;30.234;2023-05-29T00:08:49;9.60;;;2.33;;
78854;SDS011;68206;59.956;30.234;2023-05-29T00:11:17;6.03;;;1.77;;
78854;SDS011;68206;59.956;30.234;2023-05-29T00:13:45;2.35;;;1.55;;
78854;SDS011;68206;59.956;30.234;2023-05-29T00:16:13;9.07;;;2.20;;
78854;SDS011;68206;59.956;30.234;2023-05-29T00:18:41;6.05;;;1.83;;
78854;SDS011;68206;59.956;30.234;2023-05-29T00:21:13;8.32;;;2.20;;
78854;SDS011;68206;59.956;30.234;2023-05-29T00:23:42;4.72;;;2.10;;
78854;SDS011;68206;59.956;30.234;2023-05-29T00:26:12;5.90;;;2.10;;
78854;SDS011;68206;59.956;30.234;2023-05-29T00:28:47;3.08;;;2.00;;
78854;SDS011;68206;59.956;30.234;2023-05-29T00:31:15;5.35;;;2.20;;
78854;SDS011;68206;59.956;30.234;2023-05-29T00:33:43;2.95;;;1.90;;
78854;SDS011;68206;59.956;30.234;2023-05-29T00:36:11;4.28;;;2.10;;
78854;SDS011;68206;59.956;30.234;2023-05-29T00:38:41;6.80;;;2.20;;
78854;SDS011;68206;59.956;30.234;2023-05-29T00:41:12;3.08;;;2.03;;
78854;SDS011;68206;59.956;30.234;2023-05-29T00:46:09;4.88;;;2.10;;
78854;SDS011;68206;59.956;30.234;2023-05-29T00:48:41;7.40;;;1.95;;
78854;SDS011;68206;59.956;30.234;2023-05-29T00:51:10;5.63;;;2.00;;
78854;SDS011;68206;59.956;30.234;2023-05-29T00:53:43;5.20;;;2.10;;
78854;SDS011;68206;59.956;30.234;2023-05-29T00:56:12;3.78;;;1.98;;
78854;SDS011;68206;59.956;30.234;2023-05-29T00:58:41;3.75;;;1.90;;
78854;SDS011;68206;59.956;30.234;2023-05-29T01:01:10;5.65;;;2.03;;
78854;SDS011;68206;59.956;30.234;2023-05-29T01:03:38;8.75;;;2.42;;
78854;SDS011;68206;59.956;30.234;2023-05-29T01:06:08;4.95;;;2.30;;
78854;SDS011;68206;59.956;30.234;2023-05-29T01:08:36;3.85;;;2.00;;
78854;SDS011;68206;59.956;30.234;2023-05-29T01:11:08;6.25;;;2.05;;
78854;SDS011;68206;59.956;30.234;2023-05-29T01:13:45;4.15;;;1.85;;
78854;SDS011;68206;59.956;30.234;2023-05-29T01:16:16;4.93;;;1.90;;
78854;SDS011;68206;59.956;30.234;2023-05-29T01:18:51;5.75;;;2.22;;
78854;SDS011;68206;59.956;30.234;2023-05-29T01:21:26;3.13;;;1.85;;
78854;SDS011;68206;59.956;30.234;2023-05-29T01:24:13;6.18;;;2.15;;
78854;SDS011;68206;59.956;30.234;2023-05-29T01:26:48;8.15;;;2.58;;
78854;SDS011;68206;59.956;30.234;2023-05-29T01:29:21;7.72;;;2.58;;
78854;SDS011;68206;59.956;30.234;2023-05-29T01:31:51;5.63;;;2.10;;
78854;SDS011;68206;59.956;30.234;2023-05-29T01:34:20;7.45;;;2.40;;
78854;SDS011;68206;59.956;30.234;2023-05-29T01:36:48;6.75;;;2.58;;
78854;SDS011;68206;59.956;30.234;2023-05-29T01:39:16;5.00;;;2.22;;
78854;SDS011;68206;59.956;30.234;2023-05-29T01:41:46;5.78;;;2.20;;
78854;SDS011;68206;59.956;30.234;2023-05-29T01:44:16;5.45;;;2.42;;
78854;SDS011;68206;59.956;30.234;2023-05-29T01:46:46;8.13;;;2.28;;
78854;SDS011;68206;59.956;30.234;2023-05-29T01:49:15;3.75;;;2.08;;
78854;SDS011;68206;59.956;30.234;2023-05-29T01:51:44;8.88;;;2.45;;
78854;SDS011;68206;59.956;30.234;2023-05-29T01:54:12;9.32;;;2.65;;
78854;SDS011;68206;59.956;30.234;2023-05-29T01:56:41;5.80;;;2.20;;
78854;SDS011;68206;59.956;30.234;2023-05-29T01:59:10;3.25;;;2.05;;
78854;SDS011;68206;59.956;30.234;2023-05-29T02:01:40;7.20;;;2.22;;
78854;SDS011;68206;59.956;30.234;2023-05-29T02:04:08;4.85;;;2.50;;
78854;SDS011;68206;59.956;30.234;2023-05-29T02:06:37;6.90;;;2.50;;
78854;SDS011;68206;59.956;30.234;2023-05-29T02:09:05;5.95;;;2.30;;
78854;SDS011;68206;59.956;30.234;2023-05-29T02:11:33;6.78;;;2.38;;
78854;SDS011;68206;59.956;30.234;2023-05-29T02:14:01;4.90;;;2.28;;
78854;SDS011;68206;59.956;30.234;2023-05-29T02:16:32;6.10;;;2.45;;
78854;SDS011;68206;59.956;30.234;2023-05-29T02:19:01;6.03;;;1.98;;
78854;SDS011;68206;59.956;30.234;2023-05-29T02:21:50;4.85;;;2.42;;
78854;SDS011;68206;59.956;30.234;2023-05-29T02:24:18;3.92;;;2.00;;
78854;SDS011;68206;59.956;30.234;2023-05-29T02:26:47;5.38;;;2.00;;
78854;SDS011;68206;59.956;30.234;2023-05-29T02:29:17;8.55;;;2.40;;
78854;SDS011;68206;59.956;30.234;2023-05-29T02:31:46;7.63;;;2.88;;
78854;SDS011;68206;59.956;30.234;2023-05-29T02:34:14;8.73;;;2.22;;
78854;SDS011;68206;59.956;30.234;2023-05-29T02:36:43;7.35;;;2.58;;
78854;SDS011;68206;59.956;30.234;2023-05-29T02:39:11;6.50;;;2.35;;
78854;SDS011;68206;59.956;30.234;2023-05-29T02:41:39;9.02;;;2.67;;
78854;SDS011;68206;59.956;30.234;2023-05-29T02:44:07;9.95;;;2.83;;
78854;SDS011;68206;59.956;30.234;2023-05-29T02:46:35;8.40;;;3.10;;
78854;SDS011;68206;59.956;30.234;2023-05-29T02:49:05;7.78;;;2.95;;
78854;SDS011;68206;59.956;30.234;2023-05-29T02:51:33;10.13;;;3.70;;
78854;SDS011;68206;59.956;30.234;2023-05-29T02:54:01;9.35;;;2.95;;
78854;SDS011;68206;59.956;30.234;2023-05-29T02:56:29;8.45;;;2.97;;
78854;SDS011;68206;59.956;30.234;2023-05-29T02:58:57;9.45;;;3.47;;
78854;SDS011;68206;59.956;30.234;2023-05-29T03:01:28;9.38;;;3.00;;
78854;SDS011;68206;59.956;30.234;2023-05-29T03:03:56;10.05;;;4.03;;
78854;SDS011;68206;59.956;30.234;2023-05-29T03:06:26;5.25;;;2.67;;
78854;SDS011;68206;59.956;30.234;2023-05-29T03:08:54;8.85;;;3.13;;
78854;SDS011;68206;59.956;30.234;2023-05-29T03:11:23;7.75;;;2.90;;
78854;SDS011;68206;59.956;30.234;2023-05-29T03:13:51;11.23;;;4.65;;
78854;SDS011;68206;59.956;30.234;2023-05-29T03:16:20;7.45;;;2.70;;
78854;SDS011;68206;59.956;30.234;2023-05-29T03:18:48;6.53;;;2.45;;
78854;SDS011;68206;59.956;30.234;2023-05-29T03:21:19;6.32;;;2.78;;
78854;SDS011;68206;59.956;30.234;2023-05-29T03:23:49;9.57;;;3.20;;
78854;SDS011;68206;59.956;30.234;2023-05-29T03:26:18;8.40;;;3.22;;
78854;SDS011;68206;59.956;30.234;2023-05-29T03:28:49;9.02;;;2.97;;
78854;SDS011;68206;59.956;30.234;2023-05-29T03:31:18;9.93;;;3.08;;
78854;SDS011;68206;59.956;30.234;2023-05-29T03:33:46;8.63;;;2.70;;
78854;SDS011;68206;59.956;30.234;2023-05-29T03:36:19;7.78;;;3.40;;
78854;SDS011;68206;59.956;30.234;2023-05-29T03:38:49;7.07;;;3.30;;
78854;SDS011;68206;59.956;30.234;2023-05-29T03:41:18;8.35;;;3.05;;
78854;SDS011;68206;59.956;30.234;2023-05-29T03:43:47;8.55;;;3.10;;
78854;SDS011;68206;59.956;30.234;2023-05-29T03:46:17;10.13;;;3.25;;
78854;SDS011;68206;59.956;30.234;2023-05-29T03:48:45;8.60;;;3.53;;
78854;SDS011;68206;59.956;30.234;2023-05-29T03:51:13;9.50;;;3.08;;
78854;SDS011;68206;59.956;30.234;2023-05-29T03:53:41;9.23;;;2.88;;
78854;SDS011;68206;59.956;30.234;2023-05-29T03:56:11;9.98;;;3.20;;
78854;SDS011;68206;59.956;30.234;2023-05-29T03:58:40;8.13;;;2.65;;
78854;SDS011;68206;59.956;30.234;2023-05-29T04:01:09;8.85;;;3.08;;
78854;SDS011;68206;59.956;30.234;2023-05-29T04:03:37;6.18;;;2.90;;
78854;SDS011;68206;59.956;30.234;2023-05-29T04:06:06;12.30;;;3.15;;
78854;SDS011;68206;59.956;30.234;2023-05-29T04:08:34;7.45;;;2.70;;
78854;SDS011;68206;59.956;30.234;2023-05-29T04:11:03;8.48;;;3.30;;
78854;SDS011;68206;59.956;30.234;2023-05-29T04:13:33;8.30;;;3.30;;
78854;SDS011;68206;59.956;30.234;2023-05-29T04:16:01;10.05;;;3.35;;
78854;SDS011;68206;59.956;30.234;2023-05-29T04:18:29;8.00;;;3.17;;
78854;SDS011;68206;59.956;30.234;2023-05-29T04:20:57;8.93;;;2.90;;
78854;SDS011;68206;59.956;30.234;2023-05-29T04:23:26;7.07;;;2.88;;
78854;SDS011;68206;59.956;30.234;2023-05-29T04:25:54;8.48;;;3.28;;
78854;SDS011;68206;59.956;30.234;2023-05-29T04:28:25;7.95;;;2.95;;
78854;SDS011;68206;59.956;30.234;2023-05-29T04:30:56;7.18;;;3.10;;
78854;SDS011;68206;59.956;30.234;2023-05-29T04:33:25;10.98;;;3.10;;
78854;SDS011;68206;59.956;30.234;2023-05-29T04:35:56;8.63;;;2.92;;
78854;SDS011;68206;59.956;30.234;2023-05-29T04:38:25;10.38;;;2.97;;
78854;SDS011;68206;59.956;30.234;2023-05-29T04:40:54;8.43;;;3.85;;
78854;SDS011;68206;59.956;30.234;2023-05-29T04:43:27;7.35;;;3.13;;
78854;SDS011;68206;59.956;30.234;2023-05-29T04:46:04;6.97;;;3.28;;
78854;SDS011;68206;59.956;30.234;2023-05-29T04:48:37;9.82;;;3.30;;
78854;SDS011;68206;59.956;30.234;2023-05-29T04:51:07;8.98;;;3.33;;
78854;SDS011;68206;59.956;30.234;2023-05-29T04:53:38;7.88;;;3.38;;
78854;SDS011;68206;59.956;30.234;2023-05-29T04:56:07;8.07;;;3.05;;
78854;SDS011;68206;59.956;30.234;2023-05-29T04:58:36;7.82;;;2.85;;
78854;SDS011;68206;59.956;30.234;2023-05-29T05:01:06;7.05;;;3.03;;
78854;SDS011;68206;59.956;30.234;2023-05-29T05:03:37;7.15;;;3.03;;
78854;SDS011;68206;59.956;30.234;2023-05-29T05:06:05;7.93;;;3.30;;
78854;SDS011;68206;59.956;30.234;2023-05-29T05:08:35;9.90;;;3.58;;
78854;SDS011;68206;59.956;30.234;2023-05-29T05:11:04;11.90;;;3.47;;
78854;SDS011;68206;59.956;30.234;2023-05-29T05:13:33;9.57;;;3.25;;
78854;SDS011;68206;59.956;30.234;2023-05-29T05:16:01;12.00;;;3.45;;
78854;SDS011;68206;59.956;30.234;2023-05-29T05:18:32;8.57;;;3.53;;
78854;SDS011;68206;59.956;30.234;2023-05-29T05:21:03;8.10;;;3.00;;
78854;SDS011;68206;59.956;30.234;2023-05-29T05:23:34;9.18;;;3.08;;
78854;SDS011;68206;59.956;30.234;2023-05-29T05:26:22;18.00;;;3.38;;
78854;SDS011;68206;59.956;30.234;2023-05-29T05:28:50;10.57;;;3.08;;
78854;SDS011;68206;59.956;30.234;2023-05-29T05:31:19;7.68;;;3.13;;
78854;SDS011;68206;59.956;30.234;2023-05-29T05:33:48;11.85;;;3.40;;
78854;SDS011;68206;59.956;30.234;2023-05-29T05:36:17;9.32;;;3.10;;
78854;SDS011;68206;59.956;30.234;2023-05-29T05:38:46;6.47;;;2.60;;
78854;SDS011;68206;59.956;30.234;2023-05-29T05:41:14;10.73;;;3.42;;
78854;SDS011;68206;59.956;30.234;2023-05-29T05:43:42;9.07;;;3.42;;
78854;SDS011;68206;59.956;30.234;2023-05-29T05:46:22;8.85;;;3.13;;
78854;SDS011;68206;59.956;30.234;2023-05-29T05:48:54;9.75;;;3.20;;
78854;SDS011;68206;59.956;30.234;2023-05-29T05:51:24;5.72;;;2.90;;
78854;SDS011;68206;59.956;30.234;2023-05-29T05:53:53;8.50;;;2.90;;
78854;SDS011;68206;59.956;30.234;2023-05-29T05:56:21;9.25;;;3.28;;
78854;SDS011;68206;59.956;30.234;2023-05-29T05:58:50;9.15;;;3.00;;
78854;SDS011;68206;59.956;30.234;2023-05-29T06:01:19;9.20;;;3.22;;
78854;SDS011;68206;59.956;30.234;2023-05-29T06:03:48;11.45;;;3.80;;
78854;SDS011;68206;59.956;30.234;2023-05-29T06:06:18;7.82;;;3.50;;
78854;SDS011;68206;59.956;30.234;2023-05-29T06:08:47;11.05;;;3.28;;
78854;SDS011;68206;59.956;30.234;2023-05-29T06:11:16;8.75;;;4.00;;
78854;SDS011;68206;59.956;30.234;2023-05-29T06:13:45;8.93;;;3.10;;
78854;SDS011;68206;59.956;30.234;2023-05-29T06:16:31;8.50;;;3.33;;
78854;SDS011;68206;59.956;30.234;2023-05-29T06:19:00;8.38;;;3.28;;
78854;SDS011;68206;59.956;30.234;2023-05-29T06:21:34;6.13;;;2.92;;
78854;SDS011;68206;59.956;30.234;2023-05-29T06:24:02;9.43;;;3.15;;
78854;SDS011;68206;59.956;30.234;2023-05-29T06:26:31;7.93;;;3.20;;
78854;SDS011;68206;59.956;30.234;2023-05-29T06:28:59;8.95;;;2.90;;
78854;SDS011;68206;59.956;30.234;2023-05-29T06:31:27;8.43;;;3.10;;
78854;SDS011;68206;59.956;30.234;2023-05-29T06:33:56;9.13;;;3.03;;
78854;SDS011;68206;59.956;30.234;2023-05-29T06:36:24;13.75;;;3.65;;
78854;SDS011;68206;59.956;30.234;2023-05-29T06:38:54;8.20;;;3.50;;
78854;SDS011;68206;59.956;30.234;2023-05-29T06:41:22;9.63;;;3.70;;
78854;SDS011;68206;59.956;30.234;2023-05-29T06:43:50;7.88;;;3.03;;
78854;SDS011;68206;59.956;30.234;2023-05-29T06:46:20;8.80;;;3.40;;
78854;SDS011;68206;59.956;30.234;2023-05-29T06:48:49;8.88;;;3.40;;
78854;SDS011;68206;59.956;30.234;2023-05-29T06:51:17;7.35;;;3.13;;
78854;SDS011;68206;59.956;30.234;2023-05-29T06:54:07;6.85;;;3.00;;
78854;SDS011;68206;59.956;30.234;2023-05-29T06:56:37;7.70;;;3.30;;
78854;SDS011;68206;59.956;30.234;2023-05-29T06:59:05;8.48;;;3.53;;
78854;SDS011;68206;59.956;30.234;2023-05-29T07:01:33;13.45;;;3.50;;
78854;SDS011;68206;59.956;30.234;2023-05-29T07:04:03;7.70;;;2.88;;
78854;SDS011;68206;59.956;30.234;2023-05-29T07:06:31;11.15;;;3.45;;
78854;SDS011;68206;59.956;30.234;2023-05-29T07:09:00;6.57;;;2.67;;
78854;SDS011;68206;59.956;30.234;2023-05-29T07:11:29;9.13;;;3.30;;
78854;SDS011;68206;59.956;30.234;2023-05-29T07:13:57;7.68;;;3.30;;
78854;SDS011;68206;59.956;30.234;2023-05-29T07:16:26;6.80;;;3.03;;
78854;SDS011;68206;59.956;30.234;2023-05-29T07:18:59;11.35;;;3.65;;
78854;SDS011;68206;59.956;30.234;2023-05-29T07:21:29;10.75;;;3.20;;
78854;SDS011;68206;59.956;30.234;2023-05-29T07:23:59;10.75;;;3.40;;
78854;SDS011;68206;59.956;30.234;2023-05-29T07:26:27;6.82;;;3.55;;
78854;SDS011;68206;59.956;30.234;2023-05-29T07:28:58;7.97;;;3.22;;
78854;SDS011;68206;59.956;30.234;2023-05-29T07:31:30;8.57;;;3.60;;
78854;SDS011;68206;59.956;30.234;2023-05-29T07:33:58;9.82;;;2.95;;
78854;SDS011;68206;59.956;30.234;2023-05-29T07:36:28;9.57;;;2.97;;
78854;SDS011;68206;59.956;30.234;2023-05-29T07:38:59;8.45;;;3.10;;
78854;SDS011;68206;59.956;30.234;2023-05-29T07:41:28;7.30;;;3.28;;
78854;SDS011;68206;59.956;30.234;2023-05-29T07:43:56;9.63;;;3.20;;
78854;SDS011;68206;59.956;30.234;2023-05-29T07:46:26;6.18;;;2.90;;
78854;SDS011;68206;59.956;30.234;2023-05-29T07:49:09;6.03;;;3.00;;
78854;SDS011;68206;59.956;30.234;2023-05-29T07:51:37;5.55;;;2.50;;
78854;SDS011;68206;59.956;30.234;2023-05-29T07:54:05;5.65;;;2.53;;
78854;SDS011;68206;59.956;30.234;2023-05-29T07:56:34;7.43;;;2.50;;
78854;SDS011;68206;59.956;30.234;2023-05-29T07:59:02;6.25;;;2.40;;
78854;SDS011;68206;59.956;30.234;2023-05-29T08:01:32;4.30;;;2.33;;
78854;SDS011;68206;59.956;30.234;2023-05-29T08:04:00;5.35;;;2.40;;
78854;SDS011;68206;59.956;30.234;2023-05-29T08:06:30;7.65;;;2.45;;
78854;SDS011;68206;59.956;30.234;2023-05-29T08:09:01;6.80;;;2.67;;
78854;SDS011;68206;59.956;30.234;2023-05-29T08:11:31;7.47;;;2.13;;
78854;SDS011;68206;59.956;30.234;2023-05-29T08:13:59;6.63;;;1.95;;
78854;SDS011;68206;59.956;30.234;2023-05-29T08:16:27;4.25;;;1.80;;
78854;SDS011;68206;59.956;30.234;2023-05-29T08:18:57;6.70;;;1.98;;
78854;SDS011;68206;59.956;30.234;2023-05-29T08:21:25;9.57;;;2.20;;
78854;SDS011;68206;59.956;30.234;2023-05-29T08:23:53;7.97;;;2.00;;
78854;SDS011;68206;59.956;30.234;2023-05-29T08:26:21;7.10;;;2.05;;
78854;SDS011;68206;59.956;30.234;2023-05-29T08:28:49;6.63;;;2.22;;
78854;SDS011;68206;59.956;30.234;2023-05-29T08:31:18;4.38;;;1.92;;
78854;SDS011;68206;59.956;30.234;2023-05-29T08:33:46;5.90;;;2.20;;
78854;SDS011;68206;59.956;30.234;2023-05-29T08:36:15;5.32;;;1.85;;
78854;SDS011;68206;59.956;30.234;2023-05-29T08:38:44;5.32;;;2.05;;
78854;SDS011;68206;59.956;30.234;2023-05-29T08:41:12;9.05;;;2.78;;
78854;SDS011;68206;59.956;30.234;2023-05-29T08:43:49;5.00;;;2.00;;
78854;SDS011;68206;59.956;30.234;2023-05-29T08:46:18;8.50;;;2.53;;
78854;SDS011;68206;59.956;30.234;2023-05-29T08:48:47;3.67;;;2.13;;
78854;SDS011;68206;59.956;30.234;2023-05-29T08:51:20;4.53;;;2.00;;
78854;SDS011;68206;59.956;30.234;2023-05-29T08:53:56;2.88;;;2.00;;
78854;SDS011;68206;59.956;30.234;2023-05-29T08:56:24;3.85;;;1.80;;
78854;SDS011;68206;59.956;30.234;2023-05-29T08:59:00;14.90;;;2.20;;
78854;SDS011;68206;59.956;30.234;2023-05-29T09:01:33;6.32;;;1.95;;
78854;SDS011;68206;59.956;30.234;2023-05-29T09:04:03;6.10;;;2.10;;
78854;SDS011;68206;59.956;30.234;2023-05-29T09:06:33;3.20;;;1.80;;
78854;SDS011;68206;59.956;30.234;2023-05-29T09:09:01;3.58;;;1.67;;
78854;SDS011;68206;59.956;30.234;2023-05-29T09:11:30;4.35;;;1.90;;
78854;SDS011;68206;59.956;30.234;2023-05-29T09:13:59;5.25;;;2.30;;
78854;SDS011;68206;59.956;30.234;2023-05-29T09:16:29;5.28;;;1.98;;
78854;SDS011;68206;59.956;30.234;2023-05-29T09:19:04;6.10;;;2.72;;
78854;SDS011;68206;59.956;30.234;2023-05-29T09:21:34;10.32;;;3.88;;
78854;SDS011;68206;59.956;30.234;2023-05-29T09:24:05;3.08;;;1.60;;
78854;SDS011;68206;59.956;30.234;2023-05-29T09:26:33;3.95;;;1.70;;
78854;SDS011;68206;59.956;30.234;2023-05-29T09:29:02;3.95;;;1.83;;
78854;SDS011;68206;59.956;30.234;2023-05-29T09:31:31;3.47;;;1.85;;
78854;SDS011;68206;59.956;30.234;2023-05-29T09:34:01;5.55;;;3.05;;
78854;SDS011;68206;59.956;30.234;2023-05-29T09:36:31;9.85;;;2.00;;
78854;SDS011;68206;59.956;30.234;2023-05-29T09:39:02;6.35;;;2.00;;
78854;SDS011;68206;59.956;30.234;2023-05-29T09:41:42;2.28;;;1.58;;
78854;SDS011;68206;59.956;30.234;2023-05-29T09:44:12;9.35;;;2.20;;
78854;SDS011;68206;59.956;30.234;2023-05-29T09:46:41;4.63;;;2.00;;
78854;SDS011;68206;59.956;30.234;2023-05-29T09:49:10;5.32;;;1.92;;
78854;SDS011;68206;59.956;30.234;2023-05-29T09:51:39;8.70;;;1.98;;
78854;SDS011;68206;59.956;30.234;2023-05-29T09:54:14;8.52;;;1.80;;
78854;SDS011;68206;59.956;30.234;2023-05-29T09:56:43;3.05;;;2.00;;
78854;SDS011;68206;59.956;30.234;2023-05-29T09:59:13;4.20;;;1.70;;
78854;SDS011;68206;59.956;30.234;2023-05-29T10:01:46;4.93;;;1.90;;
78854;SDS011;68206;59.956;30.234;2023-05-29T10:04:14;4.32;;;1.67;;
78854;SDS011;68206;59.956;30.234;2023-05-29T10:06:44;2.47;;;1.50;;
78854;SDS011;68206;59.956;30.234;2023-05-29T10:09:15;3.63;;;1.67;;
78854;SDS011;68206;59.956;30.234;2023-05-29T10:11:48;4.05;;;1.55;;
78854;SDS011;68206;59.956;30.234;2023-05-29T10:14:20;8.27;;;1.95;;
78854;SDS011;68206;59.956;30.234;2023-05-29T10:16:50;4.43;;;1.55;;
78854;SDS011;68206;59.956;30.234;2023-05-29T10:19:24;3.03;;;1.40;;
78854;SDS011;68206;59.956;30.234;2023-05-29T10:21:54;5.28;;;1.65;;
78854;SDS011;68206;59.956;30.234;2023-05-29T10:24:25;4.90;;;1.88;;
78854;SDS011;68206;59.956;30.234;2023-05-29T10:26:54;3.92;;;1.40;;
78854;SDS011;68206;59.956;30.234;2023-05-29T10:29:25;3.58;;;1.35;;
78854;SDS011;68206;59.956;30.234;2023-05-29T10:32:12;4.45;;;1.55;;
78854;SDS011;68206;59.956;30.234;2023-05-29T10:34:50;2.38;;;1.42;;
78854;SDS011;68206;59.956;30.234;2023-05-29T10:37:31;4.45;;;1.55;;
78854;SDS011;68206;59.956;30.234;2023-05-29T10:40:05;2.67;;;1.33;;
78854;SDS011;68206;59.956;30.234;2023-05-29T10:42:42;3.42;;;1.40;;
78854;SDS011;68206;59.956;30.234;2023-05-29T10:48:35;4.75;;;1.73;;
78854;SDS011;68206;59.956;30.234;2023-05-29T10:51:05;4.55;;;2.10;;
78854;SDS011;68206;59.956;30.234;2023-05-29T10:53:34;4.22;;;1.92;;
78854;SDS011;68206;59.956;30.234;2023-05-29T10:56:16;3.30;;;1.90;;
78854;SDS011;68206;59.956;30.234;2023-05-29T10:58:52;6.20;;;2.00;;
78854;SDS011;68206;59.956;30.234;2023-05-29T11:01:22;6.28;;;1.67;;
78854;SDS011;68206;59.956;30.234;2023-05-29T11:03:53;3.85;;;1.65;;
78854;SDS011;68206;59.956;30.234;2023-05-29T11:06:37;5.85;;;2.08;;
78854;SDS011;68206;59.956;30.234;2023-05-29T11:09:06;6.00;;;2.10;;
78854;SDS011;68206;59.956;30.234;2023-05-29T11:14:44;3.85;;;1.55;;
78854;SDS011;68206;59.956;30.234;2023-05-29T11:20:02;4.03;;;1.90;;
78854;SDS011;68206;59.956;30.234;2023-05-29T11:22:47;2.05;;;1.30;;
78854;SDS011;68206;59.956;30.234;2023-05-29T11:25:28;3.00;;;1.73;;
78854;SDS011;68206;59.956;30.234;2023-05-29T11:28:01;4.80;;;1.38;;
78854;SDS011;68206;59.956;30.234;2023-05-29T11:30:31;2.38;;;1.08;;
78854;SDS011;68206;59.956;30.234;2023-05-29T11:33:08;2.05;;;1.23;;
78854;SDS011;68206;59.956;30.234;2023-05-29T11:35:40;3.30;;;1.30;;
78854;SDS011;68206;59.956;30.234;2023-05-29T11:38:08;3.60;;;1.40;;
78854;SDS011;68206;59.956;30.234;2023-05-29T11:40:36;7.72;;;1.40;;
78854;SDS011;68206;59.956;30.234;2023-05-29T11:43:06;3.72;;;1.38;;
78854;SDS011;68206;59.956;30.234;2023-05-29T11:45:35;4.40;;;1.52;;
78854;SDS011;68206;59.956;30.234;2023-05-29T11:48:03;3.78;;;1.48;;
78854;SDS011;68206;59.956;30.234;2023-05-29T11:50:32;8.73;;;1.38;;
78854;SDS011;68206;59.956;30.234;2023-05-29T11:53:01;5.75;;;1.33;;
78854;SDS011;68206;59.956;30.234;2023-05-29T11:55:29;4.68;;;2.85;;
78854;SDS011;68206;59.956;30.234;2023-05-29T11:57:58;2.60;;;1.02;;
78854;SDS011;68206;59.956;30.234;2023-05-29T12:00:31;2.20;;;0.80;;
78854;SDS011;68206;59.956;30.234;2023-05-29T12:03:00;5.93;;;1.13;;
78854;SDS011;68206;59.956;30.234;2023-05-29T12:05:30;7.22;;;1.27;;
78854;SDS011;68206;59.956;30.234;2023-05-29T12:07:59;1.65;;;0.98;;
78854;SDS011;68206;59.956;30.234;2023-05-29T12:10:31;0.80;;;0.80;;
78854;SDS011;68206;59.956;30.234;2023-05-29T12:12:59;3.05;;;0.90;;
78854;SDS011;68206;59.956;30.234;2023-05-29T12:15:28;3.03;;;1.02;;
78854;SDS011;68206;59.956;30.234;2023-05-29T12:17:57;4.18;;;1.00;;
78854;SDS011;68206;59.956;30.234;2023-05-29T12:20:27;6.65;;;1.60;;
78854;SDS011;68206;59.956;30.234;2023-05-29T12:22:58;5.00;;;1.23;;
78854;SDS011;68206;59.956;30.234;2023-05-29T12:25:28;3.22;;;1.20;;
78854;SDS011;68206;59.956;30.234;2023-05-29T12:27:56;2.00;;;1.17;;
78854;SDS011;68206;59.956;30.234;2023-05-29T12:30:25;4.55;;;1.52;;
78854;SDS011;68206;59.956;30.234;2023-05-29T12:33:01;3.10;;;1.30;;
78854;SDS011;68206;59.956;30.234;2023-05-29T12:35:30;10.80;;;1.50;;
78854;SDS011;68206;59.956;30.234;2023-05-29T12:37:59;5.32;;;1.38;;
78854;SDS011;68206;59.956;30.234;2023-05-29T12:40:28;2.30;;;1.15;;
78854;SDS011;68206;59.956;30.234;2023-05-29T12:42:58;1.70;;;1.20;;
78854;SDS011;68206;59.956;30.234;2023-05-29T12:45:27;4.05;;;1.30;;
78854;SDS011;68206;59.956;30.234;2023-05-29T12:47:57;4.50;;;1.40;;
78854;SDS011;68206;59.956;30.234;2023-05-29T12:50:30;9.15;;;1.33;;
78854;SDS011;68206;59.956;30.234;2023-05-29T12:52:59;5.63;;;2.05;;
78854;SDS011;68206;59.956;30.234;2023-05-29T12:55:29;2.65;;;1.30;;
78854;SDS011;68206;59.956;30.234;2023-05-29T12:58:00;6.30;;;1.40;;
78854;SDS011;68206;59.956;30.234;2023-05-29T13:00:28;7.68;;;1.70;;
78854;SDS011;68206;59.956;30.234;2023-05-29T13:02:57;1.02;;;0.57;;
78854;SDS011;68206;59.956;30.234;2023-05-29T13:05:25;1.88;;;1.30;;
78854;SDS011;68206;59.956;30.234;2023-05-29T13:07:55;1.92;;;1.40;;
78854;SDS011;68206;59.956;30.234;2023-05-29T13:10:24;8.65;;;1.58;;
78854;SDS011;68206;59.956;30.234;2023-05-29T13:12:53;3.70;;;1.40;;
78854;SDS011;68206;59.956;30.234;2023-05-29T13:15:25;2.40;;;1.20;;
78854;SDS011;68206;59.956;30.234;2023-05-29T13:17:53;8.35;;;1.55;;
78854;SDS011;68206;59.956;30.234;2023-05-29T13:20:22;2.38;;;1.27;;
78854;SDS011;68206;59.956;30.234;2023-05-29T13:22:50;5.57;;;1.75;;
78854;SDS011;68206;59.956;30.234;2023-05-29T13:25:22;2.30;;;1.40;;
78854;SDS011;68206;59.956;30.234;2023-05-29T13:27:52;3.53;;;1.17;;
78854;SDS011;68206;59.956;30.234;2023-05-29T13:30:21;2.58;;;1.13;;
78854;SDS011;68206;59.956;30.234;2023-05-29T13:32:49;2.45;;;1.25;;
78854;SDS011;68206;59.956;30.234;2023-05-29T13:35:18;7.47;;;1.40;;
78854;SDS011;68206;59.956;30.234;2023-05-29T13:37:47;3.60;;;1.05;;
78854;SDS011;68206;59.956;30.234;2023-05-29T13:40:15;2.55;;;1.40;;
78854;SDS011;68206;59.956;30.234;2023-05-29T13:42:46;1.08;;;0.90;;
78854;SDS011;68206;59.956;30.234;2023-05-29T13:45:14;3.83;;;1.30;;
78854;SDS011;68206;59.956;30.234;2023-05-29T13:47:42;3.90;;;1.25;;
78854;SDS011;68206;59.956;30.234;2023-05-29T13:50:10;2.83;;;1.60;;
78854;SDS011;68206;59.956;30.234;2023-05-29T13:52:39;3.30;;;1.13;;
78854;SDS011;68206;59.956;30.234;2023-05-29T13:55:07;2.25;;;1.63;;
78854;SDS011;68206;59.956;30.234;2023-05-29T13:57:36;4.68;;;1.20;;
78854;SDS011;68206;59.956;30.234;2023-05-29T14:00:06;2.72;;;1.20;;
78854;SDS011;68206;59.956;30.234;2023-05-29T14:02:36;3.25;;;1.58;;
78854;SDS011;68206;59.956;30.234;2023-05-29T14:05:04;7.38;;;2.05;;
78854;SDS011;68206;59.956;30.234;2023-05-29T14:07:33;4.28;;;1.42;;
78854;SDS011;68206;59.956;30.234;2023-05-29T14:10:01;2.97;;;1.55;;
78854;SDS011;68206;59.956;30.234;2023-05-29T14:12:30;13.13;;;1.75;;
78854;SDS011;68206;59.956;30.234;2023-05-29T14:14:58;4.43;;;1.25;;
78854;SDS011;68206;59.956;30.234;2023-05-29T14:17:27;3.00;;;1.33;;
78854;SDS011;68206;59.956;30.234;2023-05-29T14:19:55;4.53;;;1.60;;
78854;SDS011;68206;59.956;30.234;2023-05-29T14:22:23;3.05;;;1.50;;
78854;SDS011;68206;59.956;30.234;2023-05-29T14:24:51;4.28;;;1.20;;
78854;SDS011;68206;59.956;30.234;2023-05-29T14:27:20;4.32;;;1.38;;
78854;SDS011;68206;59.956;30.234;2023-05-29T14:29:49;4.25;;;1.20;;
78854;SDS011;68206;59.956;30.234;2023-05-29T14:32:17;5.32;;;1.27;;
78854;SDS011;68206;59.956;30.234;2023-05-29T14:34:47;4.65;;;1.55;;
78854;SDS011;68206;59.956;30.234;2023-05-29T14:37:15;2.70;;;1.27;;
78854;SDS011;68206;59.956;30.234;2023-05-29T14:39:43;3.17;;;1.08;;
78854;SDS011;68206;59.956;30.234;2023-05-29T14:42:11;6.55;;;1.20;;
78854;SDS011;68206;59.956;30.234;2023-05-29T14:44:39;2.45;;;1.10;;
78854;SDS011;68206;59.956;30.234;2023-05-29T14:47:07;3.47;;;1.45;;
78854;SDS011;68206;59.956;30.234;2023-05-29T14:49:37;1.92;;;1.20;;
78854;SDS011;68206;59.956;30.234;2023-05-29T14:52:06;1.60;;;0.90;;
78854;SDS011;68206;59.956;30.234;2023-05-29T14:54:35;3.45;;;1.20;;
78854;SDS011;68206;59.956;30.234;2023-05-29T14:57:03;1.25;;;1.13;;
78854;SDS011;68206;59.956;30.234;2023-05-29T14:59:31;7.38;;;1.58;;
78854;SDS011;68206;59.956;30.234;2023-05-29T15:02:00;4.32;;;1.48;;